sensor_id;sensor_type;location;lat;lon;timestamp;P1;durP1;ratioP1;P2;durP2;ratioP2
20705;SDS011;10514;49.468;11.044;2023-12-14T00:01:50;7.03;;;4.97;;
20705;SDS011;10514;49.468;11.044;2023-12-14T00:04:16;7.50;;;4.83;;
20705;SDS011;10514;49.468;11.044;2023-12-14T00:06:42;5.90;;;4.37;;
20705;SDS011;10514;49.468;11.044;2023-12-14T00:09:07;10.50;;;5.80;;
20705;SDS011;10514;49.468;11.044;2023-12-14T00:11:37;7.80;;;5.00;;
20705;SDS011;10514;49.468;11.044;2023-12-14T00:14:04;7.95;;;4.75;;
20705;SDS011;10514;49.468;11.044;2023-12-14T00:16:30;6.70;;;4.77;;
20705;SDS011;10514;49.468;11.044;2023-12-14T00:18:56;8.23;;;4.60;;
20705;SDS011;10514;49.468;11.044;2023-12-14T00:21:22;9.07;;;5.50;;
20705;SDS011;10514;49.468;11.044;2023-12-14T00:23:48;8.17;;;5.23;;
20705;SDS011;10514;49.468;11.044;2023-12-14T00:26:13;8.50;;;5.43;;
20705;SDS011;10514;49.468;11.044;2023-12-14T00:28:39;11.93;;;6.20;;
20705;SDS011;10514;49.468;11.044;2023-12-14T00:31:05;8.50;;;5.30;;
20705;SDS011;10514;49.468;11.044;2023-12-14T00:33:31;9.83;;;5.00;;
20705;SDS011;10514;49.468;11.044;2023-12-14T00:35:57;9.67;;;5.53;;
20705;SDS011;10514;49.468;11.044;2023-12-14T00:38:23;7.50;;;5.17;;
20705;SDS011;10514;49.468;11.044;2023-12-14T00:40:49;9.97;;;5.27;;
20705;SDS011;10514;49.468;11.044;2023-12-14T00:43:15;8.57;;;5.30;;
20705;SDS011;10514;49.468;11.044;2023-12-14T00:45:41;7.20;;;4.67;;
20705;SDS011;10514;49.468;11.044;2023-12-14T00:48:07;8.77;;;5.20;;
20705;SDS011;10514;49.468;11.044;2023-12-14T00:50:33;12.10;;;5.83;;
20705;SDS011;10514;49.468;11.044;2023-12-14T00:52:59;10.20;;;5.77;;
20705;SDS011;10514;49.468;11.044;2023-12-14T00:55:24;10.97;;;5.97;;
20705;SDS011;10514;49.468;11.044;2023-12-14T00:57:50;7.87;;;5.20;;
20705;SDS011;10514;49.468;11.044;2023-12-14T01:00:16;9.63;;;5.70;;
20705;SDS011;10514;49.468;11.044;2023-12-14T01:02:41;7.60;;;4.90;;
20705;SDS011;10514;49.468;11.044;2023-12-14T01:05:07;8.73;;;5.30;;
20705;SDS011;10514;49.468;11.044;2023-12-14T01:07:33;7.93;;;4.77;;
20705;SDS011;10514;49.468;11.044;2023-12-14T01:09:59;7.00;;;4.23;;
20705;SDS011;10514;49.468;11.044;2023-12-14T01:12:25;7.60;;;4.93;;
20705;SDS011;10514;49.468;11.044;2023-12-14T01:14:51;9.90;;;6.37;;
20705;SDS011;10514;49.468;11.044;2023-12-14T01:17:17;8.93;;;6.53;;
20705;SDS011;10514;49.468;11.044;2023-12-14T01:19:43;7.67;;;5.37;;
20705;SDS011;10514;49.468;11.044;2023-12-14T01:22:09;9.57;;;5.23;;
20705;SDS011;10514;49.468;11.044;2023-12-14T01:24:35;7.00;;;4.70;;
20705;SDS011;10514;49.468;11.044;2023-12-14T01:27:00;7.13;;;4.50;;
20705;SDS011;10514;49.468;11.044;2023-12-14T01:29:26;8.07;;;5.13;;
20705;SDS011;10514;49.468;11.044;2023-12-14T01:31:52;7.43;;;4.97;;
20705;SDS011;10514;49.468;11.044;2023-12-14T01:34:18;8.03;;;5.50;;
20705;SDS011;10514;49.468;11.044;2023-12-14T01:36:44;9.30;;;5.33;;
20705;SDS011;10514;49.468;11.044;2023-12-14T01:39:10;7.83;;;5.13;;
20705;SDS011;10514;49.468;11.044;2023-12-14T01:41:36;8.23;;;4.83;;
20705;SDS011;10514;49.468;11.044;2023-12-14T01:44:02;8.00;;;4.93;;
20705;SDS011;10514;49.468;11.044;2023-12-14T01:46:27;13.73;;;7.23;;
20705;SDS011;10514;49.468;11.044;2023-12-14T01:48:53;11.80;;;7.07;;
20705;SDS011;10514;49.468;11.044;2023-12-14T01:51:19;12.10;;;6.13;;
20705;SDS011;10514;49.468;11.044;2023-12-14T01:53:45;12.60;;;7.90;;
20705;SDS011;10514;49.468;11.044;2023-12-14T01:56:11;9.93;;;6.67;;
20705;SDS011;10514;49.468;11.044;2023-12-14T01:58:37;10.90;;;6.27;;
20705;SDS011;10514;49.468;11.044;2023-12-14T02:03:50;11.47;;;7.20;;
20705;SDS011;10514;49.468;11.044;2023-12-14T02:06:17;10.23;;;6.27;;
20705;SDS011;10514;49.468;11.044;2023-12-14T02:08:43;15.27;;;8.07;;
20705;SDS011;10514;49.468;11.044;2023-12-14T02:11:08;13.07;;;7.53;;
20705;SDS011;10514;49.468;11.044;2023-12-14T02:13:34;13.63;;;7.50;;
20705;SDS011;10514;49.468;11.044;2023-12-14T02:16:00;10.77;;;6.70;;
20705;SDS011;10514;49.468;11.044;2023-12-14T02:18:26;13.03;;;7.23;;
20705;SDS011;10514;49.468;11.044;2023-12-14T02:20:52;11.67;;;6.53;;
20705;SDS011;10514;49.468;11.044;2023-12-14T02:23:18;13.37;;;7.87;;
20705;SDS011;10514;49.468;11.044;2023-12-14T02:25:44;10.83;;;6.63;;
20705;SDS011;10514;49.468;11.044;2023-12-14T02:28:10;11.07;;;7.03;;
20705;SDS011;10514;49.468;11.044;2023-12-14T02:30:35;12.87;;;7.60;;
20705;SDS011;10514;49.468;11.044;2023-12-14T02:33:01;11.03;;;7.13;;
20705;SDS011;10514;49.468;11.044;2023-12-14T02:35:26;10.77;;;6.73;;
20705;SDS011;10514;49.468;11.044;2023-12-14T02:37:52;12.00;;;7.17;;
20705;SDS011;10514;49.468;11.044;2023-12-14T02:40:18;10.20;;;6.50;;
20705;SDS011;10514;49.468;11.044;2023-12-14T02:42:44;11.77;;;7.00;;
20705;SDS011;10514;49.468;11.044;2023-12-14T02:45:10;10.90;;;6.83;;
20705;SDS011;10514;49.468;11.044;2023-12-14T02:47:36;11.00;;;7.07;;
20705;SDS011;10514;49.468;11.044;2023-12-14T02:50:02;11.67;;;6.90;;
20705;SDS011;10514;49.468;11.044;2023-12-14T02:52:27;11.90;;;7.03;;
20705;SDS011;10514;49.468;11.044;2023-12-14T02:54:53;9.93;;;6.47;;
20705;SDS011;10514;49.468;11.044;2023-12-14T02:57:19;9.57;;;6.10;;
20705;SDS011;10514;49.468;11.044;2023-12-14T02:59:45;13.30;;;8.50;;
20705;SDS011;10514;49.468;11.044;2023-12-14T03:02:11;13.43;;;7.67;;
20705;SDS011;10514;49.468;11.044;2023-12-14T03:04:38;12.17;;;7.23;;
20705;SDS011;10514;49.468;11.044;2023-12-14T03:07:06;10.73;;;7.40;;
20705;SDS011;10514;49.468;11.044;2023-12-14T03:09:32;9.63;;;6.70;;
20705;SDS011;10514;49.468;11.044;2023-12-14T03:11:59;11.27;;;7.70;;
20705;SDS011;10514;49.468;11.044;2023-12-14T03:14:25;17.80;;;9.83;;
20705;SDS011;10514;49.468;11.044;2023-12-14T03:16:50;11.17;;;7.60;;
20705;SDS011;10514;49.468;11.044;2023-12-14T03:19:17;13.70;;;8.33;;
20705;SDS011;10514;49.468;11.044;2023-12-14T03:21:43;14.13;;;9.50;;
20705;SDS011;10514;49.468;11.044;2023-12-14T03:24:08;13.83;;;8.57;;
20705;SDS011;10514;49.468;11.044;2023-12-14T03:26:34;12.60;;;7.73;;
20705;SDS011;10514;49.468;11.044;2023-12-14T03:29:00;12.93;;;8.87;;
20705;SDS011;10514;49.468;11.044;2023-12-14T03:31:26;13.37;;;8.70;;
20705;SDS011;10514;49.468;11.044;2023-12-14T03:33:52;16.70;;;9.47;;
20705;SDS011;10514;49.468;11.044;2023-12-14T03:36:18;14.20;;;8.70;;
20705;SDS011;10514;49.468;11.044;2023-12-14T03:38:44;13.93;;;8.97;;
20705;SDS011;10514;49.468;11.044;2023-12-14T03:41:10;14.13;;;8.30;;
20705;SDS011;10514;49.468;11.044;2023-12-14T03:43:36;15.30;;;9.37;;
20705;SDS011;10514;49.468;11.044;2023-12-14T03:46:01;15.27;;;8.93;;
20705;SDS011;10514;49.468;11.044;2023-12-14T03:48:27;14.20;;;9.13;;
20705;SDS011;10514;49.468;11.044;2023-12-14T03:50:53;14.20;;;8.93;;
20705;SDS011;10514;49.468;11.044;2023-12-14T03:53:19;14.43;;;9.27;;
20705;SDS011;10514;49.468;11.044;2023-12-14T03:55:45;14.90;;;9.00;;
20705;SDS011;10514;49.468;11.044;2023-12-14T03:58:11;15.00;;;9.60;;
20705;SDS011;10514;49.468;11.044;2023-12-14T04:00:37;13.40;;;8.83;;
20705;SDS011;10514;49.468;11.044;2023-12-14T04:03:03;14.23;;;8.67;;
20705;SDS011;10514;49.468;11.044;2023-12-14T04:05:28;13.03;;;8.60;;
20705;SDS011;10514;49.468;11.044;2023-12-14T04:07:54;14.90;;;8.87;;
20705;SDS011;10514;49.468;11.044;2023-12-14T04:10:20;13.43;;;8.43;;
20705;SDS011;10514;49.468;11.044;2023-12-14T04:12:46;13.63;;;9.00;;
20705;SDS011;10514;49.468;11.044;2023-12-14T04:15:11;12.77;;;8.70;;
20705;SDS011;10514;49.468;11.044;2023-12-14T04:17:37;14.37;;;9.57;;
20705;SDS011;10514;49.468;11.044;2023-12-14T04:20:03;12.23;;;8.30;;
20705;SDS011;10514;49.468;11.044;2023-12-14T04:22:31;13.47;;;8.17;;
20705;SDS011;10514;49.468;11.044;2023-12-14T04:24:57;16.57;;;8.77;;
20705;SDS011;10514;49.468;11.044;2023-12-14T04:27:22;17.17;;;9.87;;
20705;SDS011;10514;49.468;11.044;2023-12-14T04:29:52;14.33;;;8.90;;
20705;SDS011;10514;49.468;11.044;2023-12-14T04:32:18;13.37;;;9.20;;
20705;SDS011;10514;49.468;11.044;2023-12-14T04:34:43;15.50;;;10.17;;
20705;SDS011;10514;49.468;11.044;2023-12-14T04:37:09;12.53;;;8.83;;
20705;SDS011;10514;49.468;11.044;2023-12-14T04:39:35;14.97;;;9.20;;
20705;SDS011;10514;49.468;11.044;2023-12-14T04:42:01;14.40;;;9.00;;
20705;SDS011;10514;49.468;11.044;2023-12-14T04:44:27;16.57;;;10.13;;
20705;SDS011;10514;49.468;11.044;2023-12-14T04:46:52;17.37;;;9.60;;
20705;SDS011;10514;49.468;11.044;2023-12-14T04:49:18;14.43;;;8.73;;
20705;SDS011;10514;49.468;11.044;2023-12-14T04:51:44;16.07;;;8.83;;
20705;SDS011;10514;49.468;11.044;2023-12-14T04:54:10;17.63;;;9.53;;
20705;SDS011;10514;49.468;11.044;2023-12-14T04:56:36;16.53;;;10.17;;
20705;SDS011;10514;49.468;11.044;2023-12-14T04:59:02;16.50;;;10.00;;
20705;SDS011;10514;49.468;11.044;2023-12-14T05:01:28;17.83;;;9.80;;
20705;SDS011;10514;49.468;11.044;2023-12-14T05:03:54;15.77;;;9.70;;
20705;SDS011;10514;49.468;11.044;2023-12-14T05:06:20;13.90;;;8.67;;
20705;SDS011;10514;49.468;11.044;2023-12-14T05:08:46;16.20;;;10.00;;
20705;SDS011;10514;49.468;11.044;2023-12-14T05:11:12;15.83;;;9.33;;
20705;SDS011;10514;49.468;11.044;2023-12-14T05:13:38;13.80;;;8.30;;
20705;SDS011;10514;49.468;11.044;2023-12-14T05:16:04;13.93;;;8.87;;
20705;SDS011;10514;49.468;11.044;2023-12-14T05:18:30;14.70;;;8.33;;
20705;SDS011;10514;49.468;11.044;2023-12-14T05:20:56;14.93;;;8.97;;
20705;SDS011;10514;49.468;11.044;2023-12-14T05:23:22;14.20;;;9.53;;
20705;SDS011;10514;49.468;11.044;2023-12-14T05:25:48;16.70;;;9.30;;
20705;SDS011;10514;49.468;11.044;2023-12-14T05:28:14;17.97;;;11.00;;
20705;SDS011;10514;49.468;11.044;2023-12-14T05:30:40;15.17;;;9.00;;
20705;SDS011;10514;49.468;11.044;2023-12-14T05:33:06;15.83;;;9.70;;
20705;SDS011;10514;49.468;11.044;2023-12-14T05:35:32;16.83;;;9.70;;
20705;SDS011;10514;49.468;11.044;2023-12-14T05:37:58;14.90;;;8.93;;
20705;SDS011;10514;49.468;11.044;2023-12-14T05:40:24;16.77;;;9.90;;
20705;SDS011;10514;49.468;11.044;2023-12-14T05:42:50;16.23;;;10.33;;
20705;SDS011;10514;49.468;11.044;2023-12-14T05:45:16;15.03;;;9.00;;
20705;SDS011;10514;49.468;11.044;2023-12-14T05:47:43;17.40;;;9.60;;
20705;SDS011;10514;49.468;11.044;2023-12-14T05:50:09;13.90;;;8.40;;
20705;SDS011;10514;49.468;11.044;2023-12-14T05:52:35;16.07;;;9.90;;
20705;SDS011;10514;49.468;11.044;2023-12-14T05:55:01;14.67;;;9.07;;
20705;SDS011;10514;49.468;11.044;2023-12-14T05:57:27;15.63;;;9.30;;
20705;SDS011;10514;49.468;11.044;2023-12-14T05:59:53;18.47;;;9.90;;
20705;SDS011;10514;49.468;11.044;2023-12-14T06:02:19;18.17;;;9.90;;
20705;SDS011;10514;49.468;11.044;2023-12-14T06:04:45;14.50;;;8.87;;
20705;SDS011;10514;49.468;11.044;2023-12-14T06:07:11;15.33;;;8.63;;
20705;SDS011;10514;49.468;11.044;2023-12-14T06:09:37;13.80;;;8.63;;
20705;SDS011;10514;49.468;11.044;2023-12-14T06:12:04;14.67;;;8.57;;
20705;SDS011;10514;49.468;11.044;2023-12-14T06:14:30;14.37;;;9.27;;
20705;SDS011;10514;49.468;11.044;2023-12-14T06:16:56;16.50;;;9.53;;
20705;SDS011;10514;49.468;11.044;2023-12-14T06:19:22;15.23;;;8.63;;
20705;SDS011;10514;49.468;11.044;2023-12-14T06:21:48;13.90;;;8.57;;
20705;SDS011;10514;49.468;11.044;2023-12-14T06:24:13;14.47;;;8.53;;
20705;SDS011;10514;49.468;11.044;2023-12-14T06:26:40;15.03;;;9.40;;
20705;SDS011;10514;49.468;11.044;2023-12-14T06:29:07;15.00;;;9.23;;
20705;SDS011;10514;49.468;11.044;2023-12-14T06:31:33;15.53;;;9.20;;
20705;SDS011;10514;49.468;11.044;2023-12-14T06:33:59;17.13;;;9.43;;
20705;SDS011;10514;49.468;11.044;2023-12-14T06:36:28;18.80;;;11.03;;
20705;SDS011;10514;49.468;11.044;2023-12-14T06:38:54;16.40;;;9.10;;
20705;SDS011;10514;49.468;11.044;2023-12-14T06:41:21;16.77;;;10.70;;
20705;SDS011;10514;49.468;11.044;2023-12-14T06:43:47;16.47;;;9.57;;
20705;SDS011;10514;49.468;11.044;2023-12-14T06:46:13;17.27;;;10.10;;
20705;SDS011;10514;49.468;11.044;2023-12-14T06:48:39;16.00;;;8.40;;
20705;SDS011;10514;49.468;11.044;2023-12-14T06:51:05;17.03;;;9.70;;
20705;SDS011;10514;49.468;11.044;2023-12-14T06:53:31;15.40;;;10.17;;
20705;SDS011;10514;49.468;11.044;2023-12-14T06:55:57;21.00;;;12.17;;
20705;SDS011;10514;49.468;11.044;2023-12-14T06:58:23;21.07;;;10.77;;
20705;SDS011;10514;49.468;11.044;2023-12-14T07:00:49;19.50;;;11.00;;
20705;SDS011;10514;49.468;11.044;2023-12-14T07:03:15;18.37;;;10.37;;
20705;SDS011;10514;49.468;11.044;2023-12-14T07:05:41;16.47;;;10.23;;
20705;SDS011;10514;49.468;11.044;2023-12-14T07:08:07;17.17;;;10.30;;
20705;SDS011;10514;49.468;11.044;2023-12-14T07:10:33;18.67;;;10.13;;
20705;SDS011;10514;49.468;11.044;2023-12-14T07:12:59;16.37;;;10.23;;
20705;SDS011;10514;49.468;11.044;2023-12-14T07:15:24;18.83;;;10.50;;
20705;SDS011;10514;49.468;11.044;2023-12-14T07:17:50;19.47;;;11.30;;
20705;SDS011;10514;49.468;11.044;2023-12-14T07:20:16;17.20;;;10.43;;
20705;SDS011;10514;49.468;11.044;2023-12-14T07:22:42;19.23;;;11.70;;
20705;SDS011;10514;49.468;11.044;2023-12-14T07:25:08;19.03;;;10.93;;
20705;SDS011;10514;49.468;11.044;2023-12-14T07:27:34;18.87;;;10.83;;
20705;SDS011;10514;49.468;11.044;2023-12-14T07:30:00;20.90;;;11.77;;
20705;SDS011;10514;49.468;11.044;2023-12-14T07:32:26;20.30;;;11.00;;
20705;SDS011;10514;49.468;11.044;2023-12-14T07:34:52;19.67;;;10.83;;
20705;SDS011;10514;49.468;11.044;2023-12-14T07:37:18;18.97;;;11.40;;
20705;SDS011;10514;49.468;11.044;2023-12-14T07:39:43;18.93;;;11.23;;
20705;SDS011;10514;49.468;11.044;2023-12-14T07:42:09;20.57;;;11.43;;
20705;SDS011;10514;49.468;11.044;2023-12-14T07:44:35;21.53;;;12.30;;
20705;SDS011;10514;49.468;11.044;2023-12-14T07:47:02;22.97;;;11.93;;
20705;SDS011;10514;49.468;11.044;2023-12-14T07:49:28;23.90;;;12.60;;
20705;SDS011;10514;49.468;11.044;2023-12-14T07:51:54;22.30;;;11.87;;
20705;SDS011;10514;49.468;11.044;2023-12-14T07:54:19;18.13;;;10.63;;
20705;SDS011;10514;49.468;11.044;2023-12-14T07:56:46;22.37;;;11.63;;
20705;SDS011;10514;49.468;11.044;2023-12-14T07:59:12;20.27;;;12.07;;
20705;SDS011;10514;49.468;11.044;2023-12-14T08:01:37;24.47;;;13.43;;
20705;SDS011;10514;49.468;11.044;2023-12-14T08:04:03;21.67;;;11.67;;
20705;SDS011;10514;49.468;11.044;2023-12-14T08:06:29;26.83;;;13.77;;
20705;SDS011;10514;49.468;11.044;2023-12-14T08:08:57;24.17;;;13.50;;
20705;SDS011;10514;49.468;11.044;2023-12-14T08:11:23;22.27;;;12.60;;
20705;SDS011;10514;49.468;11.044;2023-12-14T08:13:49;22.60;;;12.33;;
20705;SDS011;10514;49.468;11.044;2023-12-14T08:16:14;23.20;;;12.93;;
20705;SDS011;10514;49.468;11.044;2023-12-14T08:18:42;21.17;;;11.77;;
20705;SDS011;10514;49.468;11.044;2023-12-14T08:21:10;22.20;;;12.20;;
20705;SDS011;10514;49.468;11.044;2023-12-14T08:23:36;20.20;;;12.10;;
20705;SDS011;10514;49.468;11.044;2023-12-14T08:26:02;19.97;;;10.80;;
20705;SDS011;10514;49.468;11.044;2023-12-14T08:28:28;17.57;;;10.63;;
20705;SDS011;10514;49.468;11.044;2023-12-14T08:30:55;19.03;;;11.60;;
20705;SDS011;10514;49.468;11.044;2023-12-14T08:33:23;17.23;;;10.57;;
20705;SDS011;10514;49.468;11.044;2023-12-14T08:35:49;18.37;;;10.67;;
20705;SDS011;10514;49.468;11.044;2023-12-14T08:38:15;17.83;;;11.37;;
20705;SDS011;10514;49.468;11.044;2023-12-14T08:40:41;16.87;;;10.00;;
20705;SDS011;10514;49.468;11.044;2023-12-14T08:43:07;17.17;;;10.60;;
20705;SDS011;10514;49.468;11.044;2023-12-14T08:45:33;18.20;;;11.10;;
20705;SDS011;10514;49.468;11.044;2023-12-14T08:47:59;23.83;;;12.60;;
20705;SDS011;10514;49.468;11.044;2023-12-14T08:50:25;20.87;;;10.93;;
20705;SDS011;10514;49.468;11.044;2023-12-14T08:52:51;18.60;;;11.13;;
20705;SDS011;10514;49.468;11.044;2023-12-14T08:55:17;20.80;;;12.57;;
20705;SDS011;10514;49.468;11.044;2023-12-14T08:57:43;23.20;;;11.83;;
20705;SDS011;10514;49.468;11.044;2023-12-14T09:00:09;23.23;;;12.43;;
20705;SDS011;10514;49.468;11.044;2023-12-14T09:02:36;21.37;;;10.93;;
20705;SDS011;10514;49.468;11.044;2023-12-14T09:05:02;19.93;;;11.87;;
20705;SDS011;10514;49.468;11.044;2023-12-14T09:07:29;18.07;;;11.07;;
20705;SDS011;10514;49.468;11.044;2023-12-14T09:09:55;22.63;;;11.73;;
20705;SDS011;10514;49.468;11.044;2023-12-14T09:12:21;18.73;;;10.53;;
20705;SDS011;10514;49.468;11.044;2023-12-14T09:14:47;16.00;;;9.93;;
20705;SDS011;10514;49.468;11.044;2023-12-14T09:17:13;19.77;;;10.80;;
20705;SDS011;10514;49.468;11.044;2023-12-14T09:19:39;18.13;;;10.83;;
20705;SDS011;10514;49.468;11.044;2023-12-14T09:22:04;16.03;;;10.10;;
20705;SDS011;10514;49.468;11.044;2023-12-14T09:24:31;18.23;;;10.33;;
20705;SDS011;10514;49.468;11.044;2023-12-14T09:26:57;17.40;;;10.37;;
20705;SDS011;10514;49.468;11.044;2023-12-14T09:29:22;15.07;;;9.27;;
20705;SDS011;10514;49.468;11.044;2023-12-14T09:31:48;18.43;;;10.90;;
20705;SDS011;10514;49.468;11.044;2023-12-14T09:34:15;18.03;;;10.17;;
20705;SDS011;10514;49.468;11.044;2023-12-14T09:36:40;16.97;;;10.50;;
20705;SDS011;10514;49.468;11.044;2023-12-14T09:39:06;18.17;;;8.97;;
20705;SDS011;10514;49.468;11.044;2023-12-14T09:41:35;15.27;;;9.57;;
20705;SDS011;10514;49.468;11.044;2023-12-14T09:44:02;15.67;;;10.37;;
20705;SDS011;10514;49.468;11.044;2023-12-14T09:46:28;16.37;;;10.00;;
20705;SDS011;10514;49.468;11.044;2023-12-14T09:48:55;18.07;;;10.33;;
20705;SDS011;10514;49.468;11.044;2023-12-14T09:51:21;15.60;;;10.30;;
20705;SDS011;10514;49.468;11.044;2023-12-14T09:53:48;15.47;;;9.47;;
20705;SDS011;10514;49.468;11.044;2023-12-14T09:56:14;17.43;;;10.40;;
20705;SDS011;10514;49.468;11.044;2023-12-14T09:58:39;15.60;;;10.20;;
20705;SDS011;10514;49.468;11.044;2023-12-14T10:01:24;14.60;;;9.40;;
20705;SDS011;10514;49.468;11.044;2023-12-14T10:03:50;20.90;;;11.07;;
20705;SDS011;10514;49.468;11.044;2023-12-14T10:06:31;16.80;;;10.03;;
20705;SDS011;10514;49.468;11.044;2023-12-14T10:08:58;16.97;;;10.33;;
20705;SDS011;10514;49.468;11.044;2023-12-14T10:11:24;17.27;;;10.17;;
20705;SDS011;10514;49.468;11.044;2023-12-14T10:13:49;16.83;;;10.10;;
20705;SDS011;10514;49.468;11.044;2023-12-14T10:18:55;14.13;;;9.10;;
20705;SDS011;10514;49.468;11.044;2023-12-14T10:21:22;17.03;;;9.87;;
20705;SDS011;10514;49.468;11.044;2023-12-14T10:23:49;15.87;;;9.17;;
20705;SDS011;10514;49.468;11.044;2023-12-14T10:26:14;13.83;;;8.83;;
20705;SDS011;10514;49.468;11.044;2023-12-14T10:28:40;19.20;;;10.30;;
20705;SDS011;10514;49.468;11.044;2023-12-14T10:31:06;16.47;;;9.57;;
20705;SDS011;10514;49.468;11.044;2023-12-14T10:33:34;15.43;;;9.03;;
20705;SDS011;10514;49.468;11.044;2023-12-14T10:36:00;16.70;;;9.27;;
20705;SDS011;10514;49.468;11.044;2023-12-14T10:38:26;13.43;;;8.90;;
20705;SDS011;10514;49.468;11.044;2023-12-14T10:40:54;15.17;;;9.20;;
20705;SDS011;10514;49.468;11.044;2023-12-14T10:43:22;14.37;;;9.10;;
20705;SDS011;10514;49.468;11.044;2023-12-14T10:45:48;14.93;;;9.03;;
20705;SDS011;10514;49.468;11.044;2023-12-14T10:48:15;16.73;;;9.87;;
20705;SDS011;10514;49.468;11.044;2023-12-14T10:50:45;19.27;;;9.55;;
20705;SDS011;10514;49.468;11.044;2023-12-14T10:53:11;14.90;;;9.47;;
20705;SDS011;10514;49.468;11.044;2023-12-14T10:55:38;13.60;;;8.37;;
20705;SDS011;10514;49.468;11.044;2023-12-14T10:58:08;15.63;;;9.43;;
20705;SDS011;10514;49.468;11.044;2023-12-14T11:00:34;16.03;;;9.10;;
20705;SDS011;10514;49.468;11.044;2023-12-14T11:03:01;15.43;;;9.50;;
20705;SDS011;10514;49.468;11.044;2023-12-14T11:05:31;14.87;;;8.97;;
20705;SDS011;10514;49.468;11.044;2023-12-14T11:08:04;15.13;;;8.90;;
20705;SDS011;10514;49.468;11.044;2023-12-14T11:13:05;17.63;;;10.53;;
20705;SDS011;10514;49.468;11.044;2023-12-14T11:15:35;17.97;;;10.17;;
20705;SDS011;10514;49.468;11.044;2023-12-14T11:23:18;14.70;;;8.87;;
20705;SDS011;10514;49.468;11.044;2023-12-14T11:25:51;13.85;;;8.82;;
20705;SDS011;10514;49.468;11.044;2023-12-14T11:28:19;12.83;;;7.23;;
20705;SDS011;10514;49.468;11.044;2023-12-14T11:30:45;13.37;;;7.27;;
20705;SDS011;10514;49.468;11.044;2023-12-14T11:33:12;13.37;;;6.97;;
20705;SDS011;10514;49.468;11.044;2023-12-14T11:35:38;12.80;;;7.17;;
20705;SDS011;10514;49.468;11.044;2023-12-14T11:38:04;12.00;;;6.67;;
20705;SDS011;10514;49.468;11.044;2023-12-14T11:40:41;12.40;;;7.30;;
20705;SDS011;10514;49.468;11.044;2023-12-14T11:43:07;10.30;;;6.85;;
20705;SDS011;10514;49.468;11.044;2023-12-14T11:45:37;12.65;;;7.32;;
20705;SDS011;10514;49.468;11.044;2023-12-14T11:48:04;11.60;;;7.13;;
20705;SDS011;10514;49.468;11.044;2023-12-14T11:50:31;11.20;;;7.50;;
20705;SDS011;10514;49.468;11.044;2023-12-14T11:53:00;8.70;;;5.45;;
20705;SDS011;10514;49.468;11.044;2023-12-14T11:55:28;10.60;;;6.22;;
20705;SDS011;10514;49.468;11.044;2023-12-14T11:57:55;10.73;;;7.20;;
20705;SDS011;10514;49.468;11.044;2023-12-14T12:00:27;10.60;;;6.10;;
20705;SDS011;10514;49.468;11.044;2023-12-14T12:03:13;11.35;;;6.25;;
20705;SDS011;10514;49.468;11.044;2023-12-14T12:05:47;10.32;;;5.85;;
20705;SDS011;10514;49.468;11.044;2023-12-14T12:08:15;9.63;;;6.28;;
20705;SDS011;10514;49.468;11.044;2023-12-14T12:10:41;8.98;;;5.78;;
20705;SDS011;10514;49.468;11.044;2023-12-14T12:13:12;9.80;;;5.68;;
20705;SDS011;10514;49.468;11.044;2023-12-14T12:15:42;11.52;;;6.43;;
20705;SDS011;10514;49.468;11.044;2023-12-14T12:18:09;9.15;;;5.22;;
20705;SDS011;10514;49.468;11.044;2023-12-14T12:20:35;10.98;;;5.88;;
20705;SDS011;10514;49.468;11.044;2023-12-14T12:23:02;13.52;;;6.18;;
20705;SDS011;10514;49.468;11.044;2023-12-14T12:25:28;8.98;;;5.70;;
20705;SDS011;10514;49.468;11.044;2023-12-14T12:27:55;10.93;;;5.97;;
20705;SDS011;10514;49.468;11.044;2023-12-14T12:30:21;10.93;;;5.78;;
20705;SDS011;10514;49.468;11.044;2023-12-14T12:32:48;10.52;;;5.63;;
20705;SDS011;10514;49.468;11.044;2023-12-14T12:35:14;9.35;;;5.75;;
20705;SDS011;10514;49.468;11.044;2023-12-14T12:37:41;12.95;;;6.15;;
20705;SDS011;10514;49.468;11.044;2023-12-14T12:40:07;10.05;;;5.57;;
20705;SDS011;10514;49.468;11.044;2023-12-14T12:42:33;13.00;;;6.35;;
20705;SDS011;10514;49.468;11.044;2023-12-14T12:44:59;9.77;;;6.07;;
20705;SDS011;10514;49.468;11.044;2023-12-14T12:47:25;11.60;;;6.63;;
20705;SDS011;10514;49.468;11.044;2023-12-14T12:49:51;11.80;;;6.32;;
20705;SDS011;10514;49.468;11.044;2023-12-14T12:52:17;11.20;;;6.93;;
20705;SDS011;10514;49.468;11.044;2023-12-14T12:54:43;14.00;;;6.95;;
20705;SDS011;10514;49.468;11.044;2023-12-14T12:57:09;11.17;;;7.03;;
20705;SDS011;10514;49.468;11.044;2023-12-14T12:59:35;10.27;;;6.22;;
20705;SDS011;10514;49.468;11.044;2023-12-14T13:02:01;12.67;;;7.37;;
20705;SDS011;10514;49.468;11.044;2023-12-14T13:04:27;11.90;;;7.40;;
20705;SDS011;10514;49.468;11.044;2023-12-14T13:06:55;12.30;;;7.73;;
20705;SDS011;10514;49.468;11.044;2023-12-14T13:09:21;19.98;;;11.20;;
20705;SDS011;10514;49.468;11.044;2023-12-14T13:11:47;21.37;;;11.60;;
20705;SDS011;10514;49.468;11.044;2023-12-14T13:14:13;16.05;;;9.43;;
20705;SDS011;10514;49.468;11.044;2023-12-14T13:16:39;14.05;;;9.00;;
20705;SDS011;10514;49.468;11.044;2023-12-14T13:19:05;14.77;;;8.00;;
20705;SDS011;10514;49.468;11.044;2023-12-14T13:21:32;13.57;;;8.00;;
20705;SDS011;10514;49.468;11.044;2023-12-14T13:24:01;10.40;;;7.20;;
20705;SDS011;10514;49.468;11.044;2023-12-14T13:26:27;11.83;;;6.77;;
20705;SDS011;10514;49.468;11.044;2023-12-14T13:28:53;12.00;;;7.17;;
20705;SDS011;10514;49.468;11.044;2023-12-14T13:31:20;14.03;;;7.77;;
20705;SDS011;10514;49.468;11.044;2023-12-14T13:33:46;12.63;;;7.17;;
20705;SDS011;10514;49.468;11.044;2023-12-14T13:36:13;11.13;;;6.70;;
20705;SDS011;10514;49.468;11.044;2023-12-14T13:38:39;12.83;;;7.13;;
20705;SDS011;10514;49.468;11.044;2023-12-14T13:41:06;12.03;;;6.90;;
20705;SDS011;10514;49.468;11.044;2023-12-14T13:43:32;11.93;;;6.30;;
20705;SDS011;10514;49.468;11.044;2023-12-14T13:45:57;12.90;;;7.00;;
20705;SDS011;10514;49.468;11.044;2023-12-14T13:48:26;12.17;;;6.60;;
20705;SDS011;10514;49.468;11.044;2023-12-14T13:50:53;11.00;;;6.97;;
20705;SDS011;10514;49.468;11.044;2023-12-14T13:53:19;11.57;;;7.30;;
20705;SDS011;10514;49.468;11.044;2023-12-14T13:55:45;10.87;;;7.20;;
20705;SDS011;10514;49.468;11.044;2023-12-14T13:58:12;10.77;;;6.73;;
20705;SDS011;10514;49.468;11.044;2023-12-14T14:00:37;11.47;;;6.53;;
20705;SDS011;10514;49.468;11.044;2023-12-14T14:03:04;8.80;;;6.03;;
20705;SDS011;10514;49.468;11.044;2023-12-14T14:05:32;8.63;;;5.40;;
20705;SDS011;10514;49.468;11.044;2023-12-14T14:07:58;8.70;;;4.67;;
20705;SDS011;10514;49.468;11.044;2023-12-14T14:10:24;8.27;;;4.63;;
20705;SDS011;10514;49.468;11.044;2023-12-14T14:12:50;7.10;;;3.97;;
20705;SDS011;10514;49.468;11.044;2023-12-14T14:15:16;6.60;;;3.90;;
20705;SDS011;10514;49.468;11.044;2023-12-14T14:17:42;6.63;;;3.70;;
20705;SDS011;10514;49.468;11.044;2023-12-14T14:20:08;5.63;;;3.87;;
20705;SDS011;10514;49.468;11.044;2023-12-14T14:22:38;6.70;;;3.80;;
20705;SDS011;10514;49.468;11.044;2023-12-14T14:25:04;9.20;;;4.60;;
20705;SDS011;10514;49.468;11.044;2023-12-14T14:27:31;7.27;;;3.63;;
20705;SDS011;10514;49.468;11.044;2023-12-14T14:29:57;8.20;;;4.73;;